createdAt,value
2017-05-25T00:00:05.403Z,1015.28
2017-05-25T00:01:17.944Z,1015.27
2017-05-25T00:02:30.459Z,1015.24
2017-05-25T00:03:43.009Z,1015.24
2017-05-25T00:04:54.644Z,1015.23
2017-05-25T00:06:07.176Z,1015.24
2017-05-25T00:07:19.371Z,1015.22
2017-05-25T00:08:31.018Z,1015.2
2017-05-25T00:09:43.268Z,1015.28
2017-05-25T00:10:55.493Z,1015.24
2017-05-25T00:12:07.730Z,1015.24
2017-05-25T00:13:19.681Z,1015.2
2017-05-25T00:14:31.940Z,1015.19
2017-05-25T00:15:44.539Z,1015.14
2017-05-25T00:16:57.093Z,1015.14
2017-05-25T00:18:09.339Z,1015.14
2017-05-25T00:19:21.287Z,1015.1
2017-05-25T00:20:33.228Z,1015.17
2017-05-25T00:21:45.477Z,1015.15
2017-05-25T00:22:57.722Z,1015.15
2017-05-25T00:24:09.913Z,1015.12
2017-05-25T00:25:22.164Z,1015.17
2017-05-25T00:26:34.700Z,1015.14
2017-05-25T00:27:47.224Z,1015.18
2017-05-25T00:28:59.757Z,1015.15
2017-05-25T00:30:12.295Z,1015.12
2017-05-25T00:31:24.547Z,1015.09
2017-05-25T00:32:36.821Z,1015.06
2017-05-25T00:33:49.038Z,1015.14
2017-05-25T00:35:00.995Z,1015.14
2017-05-25T00:36:13.003Z,1015.16
2017-05-25T00:37:25.570Z,1015.17
2017-05-25T00:38:37.522Z,1015.14
2017-05-25T00:39:50.069Z,1015.17
2017-05-25T00:41:02.308Z,1015.14
2017-05-25T00:42:14.257Z,1015.13
2017-05-25T00:43:26.800Z,1015.12
2017-05-25T00:44:39.321Z,1015.14
2017-05-25T00:45:51.572Z,1015.15
2017-05-25T00:47:03.816Z,1015.14
2017-05-25T00:48:16.034Z,1015.17
2017-05-25T00:49:28.602Z,1015.17
2017-05-25T00:50:41.175Z,1015.15
2017-05-25T00:51:53.121Z,1015.19
2017-05-25T00:53:05.320Z,1015.21
2017-05-25T00:54:17.838Z,1015.18
2017-05-25T00:55:30.381Z,1015.19
2017-05-25T00:56:42.609Z,1015.17
2017-05-25T00:57:54.535Z,1015.22
2017-05-25T00:59:07.052Z,1015.24
2017-05-25T01:00:19.296Z,1015.25
2017-05-25T01:01:31.557Z,1015.26
2017-05-25T01:02:44.091Z,1015.21
2017-05-25T01:03:56.331Z,1015.23
2017-05-25T01:05:08.576Z,1015.22
2017-05-25T01:06:20.772Z,1015.24
2017-05-25T01:07:32.939Z,1015.24
2017-05-25T01:08:44.894Z,1015.19
2017-05-25T01:09:57.118Z,1015.16
2017-05-25T01:11:09.331Z,1015.13
2017-05-25T01:12:21.257Z,1015.2
2017-05-25T01:13:33.800Z,1015.16
2017-05-25T01:14:46.022Z,1015.2
2017-05-25T01:15:58.582Z,1015.21
2017-05-25T01:17:11.101Z,1015.19
2017-05-25T01:18:23.034Z,1015.15
2017-05-25T01:19:35.256Z,1015.13
2017-05-25T01:20:47.480Z,1015.16
2017-05-25T01:21:59.724Z,1015.14
2017-05-25T01:23:11.968Z,1015.17
2017-05-25T01:24:24.208Z,1015.2
2017-05-25T01:25:36.731Z,1015.19
2017-05-25T01:26:48.957Z,1015.19
2017-05-25T01:28:01.498Z,1015.17
2017-05-25T01:29:14.270Z,1015.22
2017-05-25T01:30:26.492Z,1015.19
2017-05-25T01:31:39.012Z,1015.16
2017-05-25T01:32:50.656Z,1015.19
2017-05-25T01:34:02.582Z,1015.16
2017-05-25T01:35:14.825Z,1015.14
2017-05-25T01:36:27.337Z,1015.14
2017-05-25T01:37:39.876Z,1015.15
2017-05-25T01:38:52.408Z,1015.11
2017-05-25T01:40:04.936Z,1015.09
2017-05-25T01:41:17.479Z,1015.09
2017-05-25T01:42:30.002Z,1015.1
2017-05-25T01:43:42.542Z,1015.13
2017-05-25T01:44:55.060Z,1015.14
2017-05-25T01:46:07.289Z,1015.09
2017-05-25T01:47:19.512Z,1015.12
2017-05-25T01:48:31.783Z,1015.05
2017-05-25T01:49:44.028Z,1015.09
2017-05-25T01:50:56.226Z,1015.07
2017-05-25T01:52:08.787Z,1015.12
2017-05-25T01:53:20.692Z,1015.13
2017-05-25T01:54:33.237Z,1015.17
2017-05-25T01:55:45.504Z,1015.16
2017-05-25T01:56:58.028Z,1015.14
2017-05-25T01:58:10.271Z,1015.17
2017-05-25T01:59:22.822Z,1015.21
2017-05-25T02:00:35.357Z,1015.17
2017-05-25T02:01:47.888Z,1015.16
2017-05-25T02:02:59.834Z,1015.23
2017-05-25T02:04:12.355Z,1015.24
2017-05-25T02:05:24.901Z,1015.23
2017-05-25T02:06:37.421Z,1015.19
2017-05-25T02:07:50.213Z,1015.25
2017-05-25T02:09:02.741Z,1015.24
2017-05-25T02:10:15.032Z,1015.18
2017-05-25T02:11:27.258Z,1015.24
2017-05-25T02:12:39.800Z,1015.19
2017-05-25T02:13:52.045Z,1015.17
2017-05-25T02:15:04.289Z,1015.23
2017-05-25T02:16:16.787Z,1015.21
2017-05-25T02:17:28.987Z,1015.23
2017-05-25T02:18:41.229Z,1015.27
2017-05-25T02:19:53.200Z,1015.24
2017-05-25T02:21:05.447Z,1015.23
2017-05-25T02:22:18.018Z,1015.23
2017-05-25T02:23:30.494Z,1015.22
2017-05-25T02:24:42.456Z,1015.17
2017-05-25T02:25:55.001Z,1015.15
2017-05-25T02:27:06.925Z,1015.17
2017-05-25T02:28:18.874Z,1015.13
2017-05-25T02:29:31.093Z,1015.06
2017-05-25T02:30:43.629Z,1015.14
2017-05-25T02:31:56.132Z,1015.11
2017-05-25T02:33:07.779Z,1015.13
2017-05-25T02:34:20.315Z,1015.1
2017-05-25T02:35:32.545Z,1015.11
2017-05-25T02:36:45.091Z,1015.14
2017-05-25T02:37:57.330Z,1015.11
2017-05-25T02:39:09.864Z,1015.13
2017-05-25T02:40:22.103Z,1015.08
2017-05-25T02:41:34.353Z,1015.05
2017-05-25T02:42:46.900Z,1015.03
2017-05-25T02:43:59.441Z,1015.02
2017-05-25T02:45:11.992Z,1015.02
2017-05-25T02:46:24.234Z,1015.03
2017-05-25T02:47:36.474Z,1015.05
2017-05-25T02:48:48.420Z,1015.03
2017-05-25T02:50:00.650Z,1015.06
2017-05-25T02:51:13.196Z,1015.05
2017-05-25T02:52:25.738Z,1015.05
2017-05-25T02:53:37.663Z,1015.06
2017-05-25T02:54:49.605Z,1015.02
2017-05-25T02:56:02.126Z,1015
2017-05-25T02:57:14.647Z,1015
2017-05-25T02:58:27.170Z,1015.04
2017-05-25T02:59:39.714Z,1015
2017-05-25T03:00:52.239Z,1015
2017-05-25T03:02:04.476Z,1015.01
2017-05-25T03:03:16.704Z,1015.01
2017-05-25T03:04:28.947Z,1015.04
2017-05-25T03:05:41.487Z,1015.03
2017-05-25T03:06:53.731Z,1015.04
2017-05-25T03:08:05.942Z,1015.03
2017-05-25T03:09:18.462Z,1015.07
2017-05-25T03:10:30.398Z,1015.11
2017-05-25T03:11:42.922Z,1015.11
2017-05-25T03:12:55.468Z,1015.11
2017-05-25T03:14:07.085Z,1015.1
2017-05-25T03:15:19.014Z,1015.11
2017-05-25T03:16:31.535Z,1015.1
2017-05-25T03:17:44.055Z,1015.11
2017-05-25T03:18:56.576Z,1015.12
2017-05-25T03:20:08.249Z,1015.11
2017-05-25T03:21:20.798Z,1015.13
2017-05-25T03:22:33.361Z,1015.17
2017-05-25T03:23:45.587Z,1015.13
2017-05-25T03:24:57.852Z,1015.12
2017-05-25T03:26:09.774Z,1015.15
2017-05-25T03:27:21.720Z,1015.15
2017-05-25T03:28:34.270Z,1015.15
2017-05-25T03:29:46.811Z,1015.24
2017-05-25T03:30:59.307Z,1015.23
2017-05-25T03:32:11.556Z,1015.22
2017-05-25T03:33:23.499Z,1015.21
2017-05-25T03:34:36.124Z,1015.22
2017-05-25T03:35:48.691Z,1015.22
2017-05-25T03:37:00.321Z,1015.27
2017-05-25T03:38:12.561Z,1015.29
2017-05-25T03:39:24.808Z,1015.23
2017-05-25T03:40:37.351Z,1015.27
2017-05-25T03:41:49.570Z,1015.21
2017-05-25T03:43:02.113Z,1015.23
2017-05-25T03:44:14.642Z,1015.22
2017-05-25T03:45:27.188Z,1015.25
2017-05-25T03:46:39.725Z,1015.28
2017-05-25T03:47:52.255Z,1015.27
2017-05-25T03:49:04.489Z,1015.3
2017-05-25T03:50:17.019Z,1015.29
2017-05-25T03:51:29.542Z,1015.29
2017-05-25T03:52:42.091Z,1015.28
2017-05-25T03:53:54.634Z,1015.24
2017-05-25T03:55:07.155Z,1015.27
2017-05-25T03:56:19.401Z,1015.26
2017-05-25T03:57:31.935Z,1015.28
2017-05-25T03:58:44.463Z,1015.26
2017-05-25T03:59:56.692Z,1015.29
2017-05-25T04:01:09.547Z,1015.27
2017-05-25T04:02:21.754Z,1015.29
2017-05-25T04:03:34.289Z,1015.23
2017-05-25T04:04:46.495Z,1015.25
2017-05-25T04:05:58.718Z,1015.27
2017-05-25T04:07:11.263Z,1015.2
2017-05-25T04:08:23.484Z,1015.23
2017-05-25T04:09:35.727Z,1015.23
2017-05-25T04:10:47.951Z,1015.21
2017-05-25T04:12:00.172Z,1015.18
2017-05-25T04:13:12.090Z,1015.19
2017-05-25T04:14:24.303Z,1015.18
2017-05-25T04:15:36.808Z,1015.18
2017-05-25T04:16:49.056Z,1015.17
2017-05-25T04:18:01.001Z,1015.2
2017-05-25T04:19:13.544Z,1015.28
2017-05-25T04:20:25.469Z,1015.22
2017-05-25T04:21:37.713Z,1015.23
2017-05-25T04:22:50.259Z,1015.22
2017-05-25T04:24:02.156Z,1015.22
2017-05-25T04:25:14.379Z,1015.23
2017-05-25T04:26:26.949Z,1015.22
2017-05-25T04:27:39.466Z,1015.28
2017-05-25T04:28:51.962Z,1015.26
2017-05-25T04:30:03.607Z,1015.3
2017-05-25T04:31:15.557Z,1015.32
2017-05-25T04:32:27.804Z,1015.4
2017-05-25T04:33:40.354Z,1015.36
2017-05-25T04:34:52.894Z,1015.43
2017-05-25T04:36:05.166Z,1015.42
2017-05-25T04:37:17.709Z,1015.5
2017-05-25T04:38:30.229Z,1015.43
2017-05-25T04:39:42.474Z,1015.44
2017-05-25T04:40:54.694Z,1015.5
2017-05-25T04:42:06.919Z,1015.48
2017-05-25T04:43:18.838Z,1015.52
2017-05-25T04:44:30.761Z,1015.49
2017-05-25T04:45:43.259Z,1015.54
2017-05-25T04:46:55.775Z,1015.54
2017-05-25T04:48:08.002Z,1015.57
2017-05-25T04:49:20.269Z,1015.51
2017-05-25T04:50:32.488Z,1015.51
2017-05-25T04:51:44.725Z,1015.51
2017-05-25T04:52:56.633Z,1015.47
2017-05-25T04:54:09.180Z,1015.54
2017-05-25T04:55:21.714Z,1015.52
2017-05-25T04:56:33.938Z,1015.52
2017-05-25T04:57:46.457Z,1015.5
2017-05-25T04:58:58.984Z,1015.51
2017-05-25T05:00:11.523Z,1015.56
2017-05-25T05:01:24.052Z,1015.52
2017-05-25T05:02:36.276Z,1015.54
2017-05-25T05:03:48.822Z,1015.5
2017-05-25T05:05:01.067Z,1015.5
2017-05-25T05:06:13.317Z,1015.48
2017-05-25T05:07:25.852Z,1015.49
2017-05-25T05:08:38.402Z,1015.48
2017-05-25T05:09:50.626Z,1015.48
2017-05-25T05:11:02.848Z,1015.49
2017-05-25T05:12:15.391Z,1015.49
2017-05-25T05:13:27.642Z,1015.44
2017-05-25T05:14:39.860Z,1015.49
2017-05-25T05:15:52.377Z,1015.48
2017-05-25T05:17:04.900Z,1015.5
2017-05-25T05:18:17.119Z,1015.49
2017-05-25T05:19:29.339Z,1015.53
2017-05-25T05:20:41.636Z,1015.48
2017-05-25T05:21:53.875Z,1015.47
2017-05-25T05:23:06.404Z,1015.45
2017-05-25T05:24:18.952Z,1015.52
2017-05-25T05:25:31.474Z,1015.48
2017-05-25T05:26:43.695Z,1015.5
2017-05-25T05:27:56.233Z,1015.49
2017-05-25T05:29:08.152Z,1015.54
2017-05-25T05:30:20.124Z,1015.56
2017-05-25T05:31:32.674Z,1015.57
2017-05-25T05:32:45.199Z,1015.57
2017-05-25T05:33:57.450Z,1015.59
2017-05-25T05:35:09.992Z,1015.59
2017-05-25T05:36:22.505Z,1015.62
2017-05-25T05:37:34.754Z,1015.64
2017-05-25T05:38:47.298Z,1015.67
2017-05-25T05:39:59.574Z,1015.65
2017-05-25T05:41:11.819Z,1015.61
2017-05-25T05:42:24.366Z,1015.64
2017-05-25T05:43:36.900Z,1015.66
2017-05-25T05:44:49.407Z,1015.67
2017-05-25T05:46:01.957Z,1015.65
2017-05-25T05:47:13.900Z,1015.68
2017-05-25T05:48:26.163Z,1015.66
2017-05-25T05:49:38.709Z,1015.69
2017-05-25T05:50:51.234Z,1015.74
2017-05-25T05:52:03.776Z,1015.79
2017-05-25T05:53:16.303Z,1015.79
2017-05-25T05:54:28.201Z,1015.72
2017-05-25T05:55:40.444Z,1015.73
2017-05-25T05:56:52.963Z,1015.72
2017-05-25T05:58:05.187Z,1015.77
2017-05-25T05:59:16.834Z,1015.78
2017-05-25T06:00:29.728Z,1015.77
2017-05-25T06:01:42.275Z,1015.76
2017-05-25T06:02:54.846Z,1015.8
2017-05-25T06:04:07.393Z,1015.88
2017-05-25T06:05:19.927Z,1015.97
2017-05-25T06:06:32.155Z,1015.89
2017-05-25T06:07:44.697Z,1015.82
2017-05-25T06:08:57.252Z,1015.91
2017-05-25T06:10:09.451Z,1015.93
2017-05-25T06:11:21.967Z,1015.98
2017-05-25T06:12:34.513Z,1015.91
2017-05-25T06:13:47.099Z,1016.03
2017-05-25T06:14:59.006Z,1016.44
2017-05-25T06:16:11.243Z,1016.52
2017-05-25T06:17:23.195Z,1016.23
2017-05-25T06:18:35.118Z,1016.06
2017-05-25T06:19:47.371Z,1016.16
2017-05-25T06:20:59.910Z,1016.15
2017-05-25T06:22:12.445Z,1016.08
2017-05-25T06:23:24.970Z,1016.15
2017-05-25T06:24:37.191Z,1016.09
2017-05-25T06:25:49.743Z,1016.15
2017-05-25T06:27:02.306Z,1016.14
2017-05-25T06:28:14.860Z,1016.13
2017-05-25T06:29:27.381Z,1016.22
2017-05-25T06:30:39.627Z,1016.39
2017-05-25T06:31:51.565Z,1016.35
2017-05-25T06:33:04.119Z,1016.27
2017-05-25T06:34:16.067Z,1016.62
2017-05-25T06:35:28.287Z,1016.43
2017-05-25T06:36:40.537Z,1016.41
2017-05-25T06:37:52.778Z,1016.34
2017-05-25T06:39:05.321Z,1016.52
2017-05-25T06:40:17.566Z,1016.45
2017-05-25T06:41:30.087Z,1016.46
2017-05-25T06:42:42.335Z,1016.46
2017-05-25T06:43:54.255Z,1016.46
2017-05-25T06:45:05.851Z,1016.42
2017-05-25T06:46:17.774Z,1016.41
2017-05-25T06:47:30.013Z,1016.39
2017-05-25T06:48:42.281Z,1016.42
2017-05-25T06:49:54.802Z,1016.41
2017-05-25T06:51:07.358Z,1016.39
2017-05-25T06:52:19.309Z,1016.34
2017-05-25T06:53:31.567Z,1016.45
2017-05-25T06:54:44.396Z,1016.39
2017-05-25T06:55:56.646Z,1016.4
2017-05-25T06:57:07.985Z,1016.42
2017-05-25T06:58:20.222Z,1016.43
2017-05-25T06:59:32.779Z,1016.4
2017-05-25T07:00:44.977Z,1016.32
2017-05-25T07:01:57.513Z,1016.18
2017-05-25T07:03:09.463Z,1016.11
2017-05-25T07:04:21.687Z,1016.01
2017-05-25T07:05:34.236Z,1016.02
2017-05-25T07:06:46.476Z,1016.02
2017-05-25T07:07:59.019Z,1016
2017-05-25T07:09:11.573Z,1015.96
2017-05-25T07:10:23.518Z,1015.93
2017-05-25T07:11:36.061Z,1015.89
2017-05-25T07:12:48.599Z,1015.89
2017-05-25T07:14:00.847Z,1015.88
2017-05-25T07:15:12.801Z,1015.8
2017-05-25T07:16:25.047Z,1015.83
2017-05-25T07:17:37.597Z,1015.8
2017-05-25T07:18:50.163Z,1015.76
2017-05-25T07:20:02.698Z,1015.8
2017-05-25T07:21:14.933Z,1015.81
2017-05-25T07:22:27.198Z,1015.85
2017-05-25T07:23:39.745Z,1015.85
2017-05-25T07:24:51.988Z,1015.88
2017-05-25T07:26:04.253Z,1015.86
2017-05-25T07:27:16.499Z,1015.79
2017-05-25T07:28:29.023Z,1015.59
2017-05-25T07:29:41.294Z,1015.63
2017-05-25T07:30:53.849Z,1015.61
2017-05-25T07:32:06.096Z,1015.74
2017-05-25T07:33:18.337Z,1015.75
2017-05-25T07:34:30.887Z,1015.75
2017-05-25T07:35:42.821Z,1015.82
2017-05-25T07:36:55.371Z,1015.81
2017-05-25T07:38:08.227Z,1015.99
2017-05-25T07:39:19.891Z,1015.93
2017-05-25T07:40:32.466Z,1015.84
2017-05-25T07:41:44.480Z,1015.84
2017-05-25T07:42:57.039Z,1015.79
2017-05-25T07:44:08.975Z,1015.86
2017-05-25T07:45:20.898Z,1015.97
2017-05-25T07:46:33.416Z,1016.13
2017-05-25T07:47:45.691Z,1016.15
2017-05-25T07:48:57.937Z,1016.13
2017-05-25T07:50:10.199Z,1016.11
2017-05-25T07:51:21.546Z,1016.21
2017-05-25T07:52:33.793Z,1016.13
2017-05-25T07:53:45.764Z,1016.06
2017-05-25T07:54:58.333Z,1016.09
2017-05-25T07:56:10.284Z,1016.09
2017-05-25T07:57:22.499Z,1016.12
2017-05-25T07:58:35.079Z,1016.21
2017-05-25T07:59:47.049Z,1016.32
2017-05-25T08:00:59.584Z,1016.08
2017-05-25T08:02:11.539Z,1016
2017-05-25T08:03:23.764Z,1016.06
2017-05-25T08:04:36.302Z,1016.18
2017-05-25T08:05:48.873Z,1016.08
2017-05-25T08:07:01.422Z,1016.01
2017-05-25T08:08:13.650Z,1015.99
2017-05-25T08:09:26.216Z,1016.05
2017-05-25T08:10:38.491Z,1016.14
2017-05-25T08:11:51.048Z,1016.14
2017-05-25T08:13:03.312Z,1016.09
2017-05-25T08:14:15.577Z,1015.97
2017-05-25T08:15:27.837Z,1016.23
2017-05-25T08:16:40.082Z,1016.16
2017-05-25T08:17:52.311Z,1016.3
2017-05-25T08:19:04.878Z,1016.48
2017-05-25T08:20:16.805Z,1016.45
2017-05-25T08:21:29.070Z,1016.22
2017-05-25T08:22:41.689Z,1016.14
2017-05-25T08:23:54.240Z,1016.11
2017-05-25T08:25:06.781Z,1016.11
2017-05-25T08:26:18.748Z,1016.26
2017-05-25T08:27:30.999Z,1016.37
2017-05-25T08:28:43.279Z,1016.11
2017-05-25T08:29:55.849Z,1016.24
2017-05-25T08:31:08.093Z,1016.32
2017-05-25T08:32:20.045Z,1016.2
2017-05-25T08:33:32.582Z,1016.14
2017-05-25T08:34:44.838Z,1016.04
2017-05-25T08:35:57.403Z,1016.02
2017-05-25T08:37:09.667Z,1015.91
2017-05-25T08:38:21.626Z,1015.93
2017-05-25T08:39:33.879Z,1015.96
2017-05-25T08:40:46.139Z,1016.05
2017-05-25T08:41:58.704Z,1016.08
2017-05-25T08:43:10.951Z,1016.14
2017-05-25T08:44:23.193Z,1016.24
2017-05-25T08:45:35.745Z,1016.23
2017-05-25T08:46:48.293Z,1016.03
2017-05-25T08:48:00.255Z,1016.05
2017-05-25T08:49:12.801Z,1016.03
2017-05-25T08:50:24.455Z,1016.03
2017-05-25T08:51:36.052Z,1016.11
2017-05-25T08:52:48.335Z,1016.27
2017-05-25T08:54:00.585Z,1016.23
2017-05-25T08:55:12.530Z,1016.32
2017-05-25T08:56:24.452Z,1016.4
2017-05-25T08:57:37.060Z,1016.46
2017-05-25T08:58:48.714Z,1016.55
2017-05-25T09:00:01.286Z,1016.53
2017-05-25T09:01:13.838Z,1016.49
2017-05-25T09:02:25.477Z,1016.44
2017-05-25T09:03:37.136Z,1016.21
2017-05-25T09:04:49.402Z,1016.23
2017-05-25T09:06:01.656Z,1016.22
2017-05-25T09:07:14.225Z,1016.21
2017-05-25T09:08:26.182Z,1016.37
2017-05-25T09:09:38.738Z,1016.39
2017-05-25T09:10:50.967Z,1016.38
2017-05-25T09:12:03.222Z,1016.37
2017-05-25T09:13:15.217Z,1016.44
2017-05-25T09:14:27.470Z,1016.47
2017-05-25T09:15:39.998Z,1016.39
2017-05-25T09:16:52.513Z,1016.14
2017-05-25T09:18:04.453Z,1016.12
2017-05-25T09:19:16.979Z,1016.2
2017-05-25T09:20:29.570Z,1016.18
2017-05-25T09:21:42.141Z,1016.18
2017-05-25T09:22:54.708Z,1016.42
2017-05-25T09:24:06.652Z,1016.48
2017-05-25T09:25:18.608Z,1016.46
2017-05-25T09:26:31.157Z,1016.43
2017-05-25T09:27:43.399Z,1016.26
2017-05-25T09:28:55.974Z,1016.12
2017-05-25T09:30:08.521Z,1016.15
2017-05-25T09:31:20.767Z,1016.2
2017-05-25T09:32:33.322Z,1016.35
2017-05-25T09:33:45.589Z,1016.42
2017-05-25T09:34:57.850Z,1016.5
2017-05-25T09:36:10.100Z,1016.56
2017-05-25T09:37:22.066Z,1016.47
2017-05-25T09:38:34.308Z,1016.53
2017-05-25T09:39:46.559Z,1016.54
2017-05-25T09:40:59.084Z,1016.53
2017-05-25T09:42:11.607Z,1016.38
2017-05-25T09:43:23.249Z,1016.27
2017-05-25T09:44:35.512Z,1016.27
2017-05-25T09:45:47.455Z,1016.27
2017-05-25T09:47:00.005Z,1016.33
2017-05-25T09:48:12.538Z,1016.43
2017-05-25T09:49:24.784Z,1016.55
2017-05-25T09:50:37.018Z,1016.58
2017-05-25T09:51:49.272Z,1016.63
2017-05-25T09:53:01.217Z,1016.54
2017-05-25T09:54:13.756Z,1016.49
2017-05-25T09:55:26.011Z,1016.48
2017-05-25T09:56:38.280Z,1016.55
2017-05-25T09:57:50.855Z,1016.65
2017-05-25T09:59:03.339Z,1016.49
2017-05-25T10:00:15.882Z,1016.62
2017-05-25T10:01:28.140Z,1016.58
2017-05-25T10:02:40.698Z,1016.59
2017-05-25T10:03:53.255Z,1016.66
2017-05-25T10:05:05.500Z,1016.53
2017-05-25T10:06:18.041Z,1016.58
2017-05-25T10:07:30.584Z,1016.53
2017-05-25T10:08:42.581Z,1016.45
2017-05-25T10:09:55.137Z,1016.48
2017-05-25T10:11:07.098Z,1016.47
2017-05-25T10:12:19.340Z,1016.43
2017-05-25T10:13:31.865Z,1016.4
2017-05-25T10:14:44.418Z,1016.46
2017-05-25T10:15:56.672Z,1016.52
2017-05-25T10:17:09.228Z,1016.55
2017-05-25T10:18:21.782Z,1016.59
2017-05-25T10:19:34.342Z,1016.57
2017-05-25T10:20:47.136Z,1016.6
2017-05-25T10:21:59.395Z,1016.59
2017-05-25T10:23:11.938Z,1016.61
2017-05-25T10:24:24.203Z,1016.6
2017-05-25T10:25:36.728Z,1016.55
2017-05-25T10:26:49.256Z,1016.56
2017-05-25T10:28:01.199Z,1016.54
2017-05-25T10:29:13.738Z,1016.45
2017-05-25T10:30:26.289Z,1016.54
2017-05-25T10:31:38.835Z,1016.58
2017-05-25T10:32:51.372Z,1016.62
2017-05-25T10:34:03.617Z,1016.68
2017-05-25T10:35:16.148Z,1016.71
2017-05-25T10:36:28.694Z,1016.62
2017-05-25T10:37:41.233Z,1016.56
2017-05-25T10:38:53.817Z,1016.62
2017-05-25T10:40:05.728Z,1016.62
2017-05-25T10:41:17.977Z,1016.43
2017-05-25T10:42:29.912Z,1016.56
2017-05-25T10:43:42.147Z,1016.64
2017-05-25T10:44:54.390Z,1016.61
2017-05-25T10:46:06.911Z,1016.72
2017-05-25T10:47:19.160Z,1016.77
2017-05-25T10:48:31.703Z,1016.75
2017-05-25T10:49:44.265Z,1016.64
2017-05-25T10:50:56.826Z,1016.64
2017-05-25T10:52:09.056Z,1016.72
2017-05-25T10:53:20.990Z,1016.68
2017-05-25T10:54:33.234Z,1016.59
2017-05-25T10:55:45.461Z,1016.49
2017-05-25T10:56:57.696Z,1016.52
2017-05-25T10:58:09.635Z,1016.6
2017-05-25T10:59:22.181Z,1016.51
2017-05-25T11:00:34.138Z,1016.43
2017-05-25T11:01:46.381Z,1016.59
2017-05-25T11:02:58.909Z,1016.61
2017-05-25T11:04:11.472Z,1016.59
2017-05-25T11:05:23.386Z,1016.61
2017-05-25T11:06:35.924Z,1016.54
2017-05-25T11:07:48.168Z,1016.5
2017-05-25T11:09:00.752Z,1016.56
2017-05-25T11:10:13.295Z,1016.52
2017-05-25T11:11:25.830Z,1016.54
2017-05-25T11:12:38.389Z,1016.44
2017-05-25T11:13:50.916Z,1016.42
2017-05-25T11:15:03.366Z,1016.44
2017-05-25T11:16:15.008Z,1016.37
2017-05-25T11:17:27.583Z,1016.5
2017-05-25T11:18:40.124Z,1016.49
2017-05-25T11:19:52.669Z,1016.56
2017-05-25T11:21:04.896Z,1016.56
2017-05-25T11:22:17.428Z,1016.6
2017-05-25T11:23:29.984Z,1016.58
2017-05-25T11:24:41.957Z,1016.47
2017-05-25T11:25:54.180Z,1016.42
2017-05-25T11:27:06.439Z,1016.32
2017-05-25T11:28:18.684Z,1016.31
2017-05-25T11:29:31.233Z,1016.37
2017-05-25T11:30:43.782Z,1016.43
2017-05-25T11:31:56.062Z,1016.39
2017-05-25T11:33:07.995Z,1016.5
2017-05-25T11:34:20.223Z,1016.57
2017-05-25T11:35:32.150Z,1016.55
2017-05-25T11:36:44.416Z,1016.47
2017-05-25T11:37:56.662Z,1016.51
2017-05-25T11:39:08.909Z,1016.52
2017-05-25T11:40:20.859Z,1016.49
2017-05-25T11:41:33.123Z,1016.64
2017-05-25T11:42:45.384Z,1016.58
2017-05-25T11:43:57.617Z,1016.68
2017-05-25T11:45:10.153Z,1016.7
2017-05-25T11:46:22.100Z,1016.67
2017-05-25T11:47:34.954Z,1016.85
2017-05-25T11:48:47.222Z,1016.83
2017-05-25T11:49:59.168Z,1016.85
2017-05-25T11:51:10.809Z,1016.84
2017-05-25T11:52:23.333Z,1016.91
2017-05-25T11:53:35.300Z,1016.95
2017-05-25T11:54:47.854Z,1016.9
2017-05-25T11:56:00.399Z,1016.92
2017-05-25T11:57:11.743Z,1016.84
2017-05-25T11:58:23.981Z,1016.88
2017-05-25T11:59:36.509Z,1016.91
2017-05-25T12:00:48.757Z,1016.88
2017-05-25T12:02:01.279Z,1016.8
2017-05-25T12:03:13.840Z,1016.79
2017-05-25T12:04:26.360Z,1016.83
2017-05-25T12:05:38.911Z,1016.83
2017-05-25T12:06:51.463Z,1016.83
2017-05-25T12:08:04.010Z,1016.8
2017-05-25T12:09:15.983Z,1016.82
2017-05-25T12:10:28.199Z,1016.77
2017-05-25T12:11:40.771Z,1016.79
2017-05-25T12:12:53.044Z,1016.77
2017-05-25T12:14:05.588Z,1016.76
2017-05-25T12:15:17.831Z,1016.7
2017-05-25T12:16:30.081Z,1016.67
2017-05-25T12:17:42.616Z,1016.8
2017-05-25T12:18:55.149Z,1016.77
2017-05-25T12:20:07.969Z,1016.8
2017-05-25T12:21:20.215Z,1016.63
2017-05-25T12:22:31.578Z,1016.66
2017-05-25T12:23:43.832Z,1016.73
2017-05-25T12:24:55.780Z,1016.72
2017-05-25T12:26:08.036Z,1016.68
2017-05-25T12:27:20.265Z,1016.71
2017-05-25T12:28:32.219Z,1016.64
2017-05-25T12:29:44.782Z,1016.59
2017-05-25T12:30:57.349Z,1016.57
2017-05-25T12:32:09.891Z,1016.55
2017-05-25T12:33:22.398Z,1016.54
2017-05-25T12:34:34.647Z,1016.53
2017-05-25T12:35:46.610Z,1016.58
2017-05-25T12:36:59.139Z,1016.61
2017-05-25T12:38:10.781Z,1016.61
2017-05-25T12:39:23.056Z,1016.58
2017-05-25T12:40:35.312Z,1016.55
2017-05-25T12:41:47.183Z,1016.55
2017-05-25T12:42:59.430Z,1016.52
2017-05-25T12:44:11.664Z,1016.54
2017-05-25T12:45:23.925Z,1016.41
2017-05-25T12:46:36.196Z,1016.45
2017-05-25T12:47:48.727Z,1016.4
2017-05-25T12:49:00.950Z,1016.43
2017-05-25T12:50:13.492Z,1016.46
2017-05-25T12:51:25.727Z,1016.52
2017-05-25T12:52:38.252Z,1016.56
2017-05-25T12:53:50.481Z,1016.53
2017-05-25T12:55:02.726Z,1016.52
2017-05-25T12:56:14.660Z,1016.5
2017-05-25T12:57:27.193Z,1016.48
2017-05-25T12:58:39.437Z,1016.53
2017-05-25T12:59:51.689Z,1016.55
2017-05-25T13:01:03.926Z,1016.55
2017-05-25T13:02:16.472Z,1016.48
2017-05-25T13:03:29.020Z,1016.51
2017-05-25T13:04:41.242Z,1016.43
2017-05-25T13:05:53.456Z,1016.47
2017-05-25T13:07:06.002Z,1016.44
2017-05-25T13:08:18.527Z,1016.41
2017-05-25T13:09:30.754Z,1016.36
2017-05-25T13:10:43.297Z,1016.4
2017-05-25T13:11:55.614Z,1016.46
2017-05-25T13:13:08.137Z,1016.38
2017-05-25T13:14:20.398Z,1016.32
2017-05-25T13:15:32.033Z,1016.29
2017-05-25T13:16:44.277Z,1016.37
2017-05-25T13:17:56.835Z,1016.43
2017-05-25T13:19:09.068Z,1016.41
2017-05-25T13:20:21.307Z,1016.43
2017-05-25T13:21:33.887Z,1016.54
2017-05-25T13:22:46.134Z,1016.51
2017-05-25T13:23:58.404Z,1016.55
2017-05-25T13:25:10.624Z,1016.51
2017-05-25T13:26:23.170Z,1016.54
2017-05-25T13:27:34.808Z,1016.49
2017-05-25T13:28:47.310Z,1016.51
2017-05-25T13:29:59.839Z,1016.42
2017-05-25T13:31:11.795Z,1016.34
2017-05-25T13:32:24.049Z,1016.34
2017-05-25T13:33:36.567Z,1016.3
2017-05-25T13:34:48.560Z,1016.25
2017-05-25T13:36:00.813Z,1016.18
2017-05-25T13:37:13.336Z,1016.18
2017-05-25T13:38:24.957Z,1016.27
2017-05-25T13:39:37.199Z,1016.26
2017-05-25T13:40:49.747Z,1016.22
2017-05-25T13:42:02.281Z,1016.17
2017-05-25T13:43:14.514Z,1016.12
2017-05-25T13:44:26.755Z,1016.06
2017-05-25T13:45:39.280Z,1016.1
2017-05-25T13:46:51.202Z,1016.21
2017-05-25T13:48:03.434Z,1016.37
2017-05-25T13:49:15.656Z,1016.2
2017-05-25T13:50:27.613Z,1016.23
2017-05-25T13:51:40.158Z,1016.26
2017-05-25T13:52:52.409Z,1016.28
2017-05-25T13:54:04.975Z,1016.31
2017-05-25T13:55:17.522Z,1016.39
2017-05-25T13:56:30.115Z,1016.22
2017-05-25T13:57:42.637Z,1015.96
2017-05-25T13:58:54.310Z,1015.99
2017-05-25T14:00:06.242Z,1016.05
2017-05-25T14:01:18.506Z,1016.01
2017-05-25T14:02:31.068Z,1016.05
2017-05-25T14:03:43.314Z,1016.08
2017-05-25T14:04:55.541Z,1016.02
2017-05-25T14:06:08.098Z,1015.97
2017-05-25T14:07:20.657Z,1015.94
2017-05-25T14:08:33.226Z,1015.95
2017-05-25T14:09:45.467Z,1016.02
2017-05-25T14:10:57.118Z,1016.09
2017-05-25T14:12:09.362Z,1016.06
2017-05-25T14:13:21.599Z,1015.94
2017-05-25T14:14:34.109Z,1015.89
2017-05-25T14:15:46.069Z,1015.82
2017-05-25T14:16:58.648Z,1015.78
2017-05-25T14:18:10.615Z,1015.87
2017-05-25T14:19:22.863Z,1015.85
2017-05-25T14:20:34.804Z,1015.82
2017-05-25T14:21:47.362Z,1015.85
2017-05-25T14:22:59.905Z,1015.89
2017-05-25T14:24:12.454Z,1015.97
2017-05-25T14:25:24.694Z,1015.74
2017-05-25T14:26:36.937Z,1015.68
2017-05-25T14:27:49.157Z,1015.71
2017-05-25T14:29:01.724Z,1015.63
2017-05-25T14:30:14.499Z,1015.64
2017-05-25T14:31:26.422Z,1015.54
2017-05-25T14:32:38.948Z,1015.55
2017-05-25T14:33:51.506Z,1015.55
2017-05-25T14:35:04.028Z,1015.55
2017-05-25T14:36:16.247Z,1015.68
2017-05-25T14:37:28.783Z,1015.77